Decoded Metar for SAWG (RIO GALLEGOS in ARGENTINA) (IATA:RGL) | Meteo·Mobile Aviation Weather
aviador You're here:

SAWG Decoded Metar

RIO GALLEGOS in ARGENTINA
Report Time2018-09-24 18:00:00
UTC Time2018-09-24 18:16:54
Flight Rules vfr VFR
WindVRB at 05 kt
Visibility9999 m
Phenomena:N/A
Clouds:Scattered 030 Hf
Expected CloudBase > 6,000 ft AGL from Temp-Dew spread
CeilingNone
Temp07°C (ISA -8)
Dew Point-8°C (34% RH)
AAT2.3°C
QNH1014 hPa
Density Alt-869 ft
Elevation62 ft
Report Wrong Elevation
Raw Report
SAWG 241800Z VRB05KT 9999 SCT030 07/M08 Q1014=

Extra information for SAWG:More info

Metar Taf Metar & Taf Last 4 Metars F.Rules Stats Wind Profile Meteogram Temp Stats Airport Information Weather charts Add Link Nearby VenuesMetar ALERT Operation Metar Decoded Social comments